createdAt,value
2019-03-02T00:00:27.862Z,0.90
2019-03-02T00:02:59.447Z,0.93
2019-03-02T00:05:25.547Z,1.10
2019-03-02T00:07:53.836Z,1.10
2019-03-02T00:10:23.888Z,1.20
2019-03-02T00:12:51.589Z,1.00
2019-03-02T00:15:19.526Z,1.00
2019-03-02T00:17:50.664Z,1.10
2019-03-02T00:20:18.151Z,1.00
2019-03-02T00:22:46.635Z,1.40
2019-03-02T00:25:14.676Z,0.97
2019-03-02T00:27:42.608Z,0.90
2019-03-02T00:30:10.571Z,0.70
2019-03-02T00:32:41.597Z,0.80
2019-03-02T00:35:08.257Z,1.00
2019-03-02T00:37:36.427Z,0.90
2019-03-02T00:40:04.777Z,0.97
2019-03-02T00:42:32.911Z,1.10
2019-03-02T00:45:00.968Z,0.70
2019-03-02T00:47:31.721Z,1.00
2019-03-02T00:50:01.054Z,1.20
2019-03-02T00:52:29.362Z,1.10
2019-03-02T00:54:58.275Z,0.90
2019-03-02T00:57:26.634Z,0.90
2019-03-02T00:59:54.636Z,1.00
2019-03-02T01:02:22.648Z,0.63
2019-03-02T01:04:50.631Z,0.80
2019-03-02T01:07:20.726Z,0.90
2019-03-02T01:09:48.252Z,1.10
2019-03-02T01:12:16.413Z,1.03
2019-03-02T01:14:44.341Z,0.97
2019-03-02T01:17:12.355Z,0.90
2019-03-02T01:19:40.360Z,0.80
2019-03-02T01:22:08.305Z,1.53
2019-03-02T01:24:38.979Z,1.00
2019-03-02T01:27:06.189Z,0.90
2019-03-02T01:29:34.177Z,0.80
2019-03-02T01:32:02.145Z,1.00
2019-03-02T01:34:30.232Z,0.80
2019-03-02T01:36:58.360Z,0.80
2019-03-02T01:39:29.186Z,1.00
2019-03-02T01:41:56.179Z,0.97
2019-03-02T01:44:24.211Z,1.00
2019-03-02T01:46:52.379Z,1.00
2019-03-02T01:49:20.393Z,0.87
2019-03-02T01:51:48.381Z,0.90
2019-03-02T01:54:17.980Z,1.10
2019-03-02T01:56:46.035Z,0.83
2019-03-02T01:59:14.061Z,0.93
2019-03-02T02:01:42.015Z,0.83
2019-03-02T02:04:09.912Z,0.90
2019-03-02T02:06:39.843Z,0.80
2019-03-02T02:09:07.703Z,0.90
2019-03-02T02:11:35.728Z,1.00
2019-03-02T02:14:03.744Z,0.80
2019-03-02T02:16:31.652Z,1.10
2019-03-02T02:19:02.504Z,0.97
2019-03-02T02:21:29.230Z,0.80
2019-03-02T02:23:57.152Z,0.90
2019-03-02T02:26:26.384Z,0.83
2019-03-02T02:28:54.311Z,1.07
2019-03-02T02:31:22.219Z,0.90
2019-03-02T02:33:50.304Z,0.70
2019-03-02T02:36:19.287Z,1.00
2019-03-02T02:38:53.593Z,0.80
2019-03-02T02:41:23.176Z,0.77
2019-03-02T02:43:47.864Z,0.77
2019-03-02T02:46:15.924Z,0.90
2019-03-02T02:48:43.930Z,0.90
2019-03-02T02:51:12.503Z,0.93
2019-03-02T02:53:45.264Z,0.70
2019-03-02T02:56:14.335Z,0.80
2019-03-02T02:58:40.027Z,0.80
2019-03-02T03:01:08.113Z,0.70
2019-03-02T03:03:36.266Z,1.03
2019-03-02T03:06:04.269Z,0.80
2019-03-02T03:08:45.400Z,0.87
2019-03-02T03:11:13.459Z,1.10
2019-03-02T03:13:42.316Z,0.80
2019-03-02T03:16:11.495Z,0.73
2019-03-02T03:18:40.608Z,0.90
2019-03-02T03:21:08.645Z,0.73
2019-03-02T03:23:36.669Z,0.70
2019-03-02T03:26:04.700Z,0.90
2019-03-02T03:28:32.724Z,0.90
2019-03-02T03:31:00.733Z,0.87
2019-03-02T03:33:42.056Z,0.80
2019-03-02T03:35:58.606Z,0.80
2019-03-02T03:38:29.443Z,1.10
2019-03-02T03:41:00.291Z,0.80
2019-03-02T03:43:25.907Z,0.80
2019-03-02T03:45:53.870Z,0.90
2019-03-02T03:48:21.796Z,0.90
2019-03-02T03:50:52.450Z,0.60
2019-03-02T03:53:21.774Z,0.60
2019-03-02T03:55:49.008Z,0.97
2019-03-02T03:58:16.933Z,0.60
2019-03-02T04:00:44.908Z,0.77
2019-03-02T04:03:14.090Z,0.50
2019-03-02T04:05:47.286Z,0.70
2019-03-02T04:08:12.583Z,0.90
2019-03-02T04:10:40.643Z,0.80
2019-03-02T04:13:08.725Z,0.80
2019-03-02T04:15:41.417Z,0.90
2019-03-02T04:18:24.481Z,0.80
2019-03-02T04:20:52.403Z,1.00
2019-03-02T04:23:22.096Z,0.83
2019-03-02T04:25:52.016Z,0.90
2019-03-02T04:28:19.838Z,0.73
2019-03-02T04:30:47.927Z,1.10
2019-03-02T04:33:15.899Z,0.53
2019-03-02T04:35:43.929Z,0.60
2019-03-02T04:38:11.852Z,0.73
2019-03-02T04:40:39.980Z,0.63
2019-03-02T04:43:07.908Z,0.90
2019-03-02T04:45:36.543Z,0.70
2019-03-02T04:48:05.549Z,1.00
2019-03-02T04:50:33.591Z,1.03
2019-03-02T04:53:01.600Z,0.60
2019-03-02T04:55:29.572Z,0.70
2019-03-02T04:57:57.601Z,0.77
2019-03-02T05:00:28.636Z,0.87
2019-03-02T05:02:56.113Z,0.97
2019-03-02T05:05:24.183Z,0.80
2019-03-02T05:07:52.277Z,0.80
2019-03-02T05:10:20.313Z,0.70
2019-03-02T05:12:49.662Z,0.80
2019-03-02T05:15:18.028Z,1.13
2019-03-02T05:17:46.032Z,1.13
2019-03-02T05:20:14.036Z,0.70
2019-03-02T05:22:42.345Z,0.80
2019-03-02T05:25:10.696Z,0.80
2019-03-02T05:27:38.704Z,0.60
2019-03-02T05:30:07.193Z,0.67
2019-03-02T05:32:35.196Z,0.90
2019-03-02T05:35:03.179Z,0.80
2019-03-02T05:37:31.149Z,0.80
2019-03-02T05:39:59.123Z,0.73
2019-03-02T05:42:27.099Z,0.67
2019-03-02T05:44:55.039Z,0.90
2019-03-02T05:47:22.989Z,0.63
2019-03-02T05:49:54.691Z,0.80
2019-03-02T05:52:20.679Z,0.67
2019-03-02T05:54:48.599Z,0.63
2019-03-02T05:57:16.752Z,0.70
2019-03-02T05:59:44.672Z,0.80
2019-03-02T06:02:13.913Z,0.70
2019-03-02T06:04:45.960Z,0.90
2019-03-02T06:07:14.276Z,0.50
2019-03-02T06:09:42.203Z,1.03
2019-03-02T06:12:11.963Z,0.60
2019-03-02T06:14:39.822Z,0.80
2019-03-02T06:17:07.848Z,0.50
2019-03-02T06:19:35.940Z,0.77
2019-03-02T06:22:04.148Z,0.70
2019-03-02T06:24:32.269Z,0.60
2019-03-02T06:27:00.298Z,0.60
2019-03-02T06:29:29.435Z,0.40
2019-03-02T06:31:57.915Z,0.73
2019-03-02T06:34:25.855Z,0.70
2019-03-02T06:36:53.756Z,0.60
2019-03-02T06:39:21.888Z,0.70
2019-03-02T06:41:49.811Z,0.50
2019-03-02T06:44:17.857Z,0.70
2019-03-02T06:46:46.033Z,0.57
2019-03-02T06:49:16.778Z,0.60
2019-03-02T06:51:43.679Z,0.97
2019-03-02T06:54:14.185Z,0.87
2019-03-02T06:56:42.406Z,0.70
2019-03-02T06:59:10.401Z,0.63
2019-03-02T07:01:38.344Z,0.70
2019-03-02T07:04:06.555Z,0.80
2019-03-02T07:06:34.475Z,0.70
2019-03-02T07:09:05.948Z,0.60
2019-03-02T07:11:33.573Z,0.80
2019-03-02T07:14:01.731Z,0.70
2019-03-02T07:16:30.179Z,0.70
2019-03-02T07:19:17.697Z,0.70
2019-03-02T07:21:45.789Z,0.80
2019-03-02T07:24:13.725Z,0.60
2019-03-02T07:26:41.776Z,1.00
2019-03-02T07:29:09.719Z,0.70
2019-03-02T07:31:37.838Z,0.90
2019-03-02T07:34:08.779Z,0.70
2019-03-02T07:36:35.831Z,0.77
2019-03-02T07:39:04.969Z,0.70
2019-03-02T07:41:33.052Z,0.77
2019-03-02T07:44:01.067Z,1.00
2019-03-02T07:46:29.058Z,0.50
2019-03-02T07:48:57.036Z,0.63
2019-03-02T07:51:25.085Z,0.70
2019-03-02T07:53:53.096Z,0.80
2019-03-02T07:56:21.068Z,0.73
2019-03-02T07:58:51.890Z,0.60
2019-03-02T08:01:18.690Z,0.60
2019-03-02T08:03:46.677Z,0.60
2019-03-02T08:06:14.696Z,0.60
2019-03-02T08:08:45.832Z,0.50
2019-03-02T08:11:13.477Z,0.40
2019-03-02T08:13:41.558Z,0.50
2019-03-02T08:16:09.563Z,0.57
2019-03-02T08:18:37.535Z,0.60
2019-03-02T08:21:05.606Z,0.50
2019-03-02T08:23:33.717Z,0.63
2019-03-02T08:26:01.811Z,0.60
2019-03-02T08:28:29.737Z,0.70
2019-03-02T08:30:57.661Z,0.80
2019-03-02T08:33:25.660Z,0.70
2019-03-02T08:35:53.593Z,0.70
2019-03-02T08:38:21.533Z,0.40
2019-03-02T08:40:49.653Z,0.50
2019-03-02T08:43:17.654Z,0.70
2019-03-02T08:45:45.577Z,0.53
2019-03-02T08:48:13.486Z,0.53
2019-03-02T08:50:41.571Z,0.70
2019-03-02T08:53:09.471Z,0.70
2019-03-02T08:55:37.416Z,0.70
2019-03-02T08:58:05.404Z,0.50
2019-03-02T09:00:33.443Z,0.70
2019-03-02T09:03:01.500Z,0.50
2019-03-02T09:05:43.459Z,0.90
2019-03-02T09:07:59.047Z,0.67
2019-03-02T09:10:27.199Z,0.83
2019-03-02T09:12:58.565Z,0.70
2019-03-02T09:15:26.486Z,0.90
2019-03-02T09:17:58.062Z,0.73
2019-03-02T09:20:26.567Z,0.80
2019-03-02T09:22:56.430Z,0.70
2019-03-02T09:25:28.103Z,0.80
2019-03-02T09:27:54.744Z,0.67
2019-03-02T09:30:22.787Z,0.70
2019-03-02T09:32:52.402Z,0.70
2019-03-02T09:35:20.712Z,0.77
2019-03-02T09:37:48.695Z,0.53
2019-03-02T09:40:16.627Z,0.97
2019-03-02T09:42:44.682Z,0.93
2019-03-02T09:45:13.280Z,0.80
2019-03-02T09:47:43.866Z,0.87
2019-03-02T09:50:13.568Z,0.90
2019-03-02T09:52:41.955Z,0.70
2019-03-02T09:55:10.340Z,1.07
2019-03-02T09:57:41.747Z,0.80
2019-03-02T10:00:15.291Z,0.90
2019-03-02T10:02:46.406Z,0.90
2019-03-02T10:05:14.711Z,0.70
2019-03-02T10:07:42.835Z,0.80
2019-03-02T10:10:11.694Z,0.80
2019-03-02T10:12:39.692Z,0.80
2019-03-02T10:15:08.976Z,0.80
2019-03-02T10:17:38.539Z,0.50
2019-03-02T10:20:07.023Z,0.90
2019-03-02T10:22:35.422Z,0.63
2019-03-02T10:25:03.764Z,0.83
2019-03-02T10:27:31.781Z,0.67
2019-03-02T10:29:59.692Z,0.63
2019-03-02T10:32:27.606Z,0.90
2019-03-02T10:34:55.527Z,0.70
2019-03-02T10:37:23.455Z,0.80
2019-03-02T10:39:51.352Z,0.70
2019-03-02T10:42:19.447Z,0.80
2019-03-02T10:44:47.359Z,0.80
2019-03-02T10:47:15.306Z,0.70
2019-03-02T10:49:44.697Z,0.70
2019-03-02T10:52:13.128Z,1.00
2019-03-02T10:54:42.378Z,0.90
2019-03-02T10:57:10.359Z,1.00
2019-03-02T10:59:38.401Z,0.83
2019-03-02T11:02:06.420Z,0.80
2019-03-02T11:04:45.823Z,0.90
2019-03-02T11:07:28.959Z,0.83
2019-03-02T11:10:07.067Z,0.80
2019-03-02T11:13:12.113Z,0.93
2019-03-02T11:15:49.084Z,0.90
2019-03-02T11:18:46.973Z,0.80
2019-03-02T11:21:30.905Z,1.10
2019-03-02T11:24:19.623Z,0.80
2019-03-02T11:27:04.263Z,0.87
2019-03-02T11:30:03.225Z,0.90
2019-03-02T11:32:48.918Z,0.73
2019-03-02T11:35:35.911Z,1.00
2019-03-02T11:38:25.659Z,0.70
2019-03-02T11:41:15.329Z,0.67
2019-03-02T11:44:02.365Z,0.70
2019-03-02T11:46:36.500Z,1.13
2019-03-02T11:49:30.531Z,0.90
2019-03-02T11:52:23.682Z,0.90
2019-03-02T11:55:10.681Z,1.00
2019-03-02T11:57:58.309Z,1.10
2019-03-02T12:00:57.908Z,1.00
2019-03-02T12:03:43.944Z,1.07
2019-03-02T12:06:42.827Z,0.90
2019-03-02T12:09:32.647Z,0.80
2019-03-02T12:12:12.836Z,0.93
2019-03-02T12:15:08.876Z,1.00
2019-03-02T12:18:01.712Z,1.10
2019-03-02T12:21:07.747Z,0.93
2019-03-02T12:23:54.727Z,0.90
2019-03-02T12:26:53.736Z,1.10
2019-03-02T12:29:49.623Z,0.80
2019-03-02T12:32:32.040Z,1.03
2019-03-02T12:35:05.591Z,0.90
2019-03-02T12:38:01.492Z,1.20
2019-03-02T12:40:40.119Z,0.90
2019-03-02T12:43:21.777Z,1.03
2019-03-02T12:45:54.340Z,1.40
2019-03-02T12:48:47.044Z,1.40
2019-03-02T12:51:35.254Z,1.20
2019-03-02T12:54:19.483Z,0.90
2019-03-02T12:56:55.396Z,0.90
2019-03-02T12:59:44.984Z,1.00
2019-03-02T13:02:34.553Z,1.00
2019-03-02T13:05:21.329Z,1.30
2019-03-02T13:08:14.916Z,1.40
2019-03-02T13:10:53.342Z,0.97
2019-03-02T13:13:46.859Z,1.13
2019-03-02T13:16:45.732Z,1.20
2019-03-02T13:19:23.000Z,1.00
2019-03-02T13:22:06.801Z,0.97
2019-03-02T13:24:57.869Z,1.10
2019-03-02T13:27:50.024Z,1.10
2019-03-02T13:30:29.550Z,1.13
2019-03-02T13:33:24.533Z,1.10
2019-03-02T13:36:29.752Z,0.93
2019-03-02T13:39:15.387Z,1.30
2019-03-02T13:41:49.476Z,0.90
2019-03-02T13:44:43.316Z,1.80
2019-03-02T13:47:30.723Z,1.40
2019-03-02T13:50:21.984Z,1.30
2019-03-02T13:52:58.819Z,0.70
2019-03-02T13:55:57.549Z,1.30
2019-03-02T13:58:36.405Z,1.20
2019-03-02T14:01:16.125Z,1.20
2019-03-02T14:03:51.029Z,1.00
2019-03-02T14:06:33.451Z,1.40
2019-03-02T14:09:38.507Z,1.23
2019-03-02T14:12:40.432Z,1.00
2019-03-02T14:15:33.734Z,1.10
2019-03-02T14:18:12.498Z,1.23
2019-03-02T14:21:02.702Z,1.00
2019-03-02T14:23:48.579Z,1.10
2019-03-02T14:26:22.987Z,1.40
2019-03-02T14:29:01.122Z,1.20
2019-03-02T14:31:38.072Z,0.83
2019-03-02T14:34:35.849Z,0.93
2019-03-02T14:37:12.133Z,1.23
2019-03-02T14:39:59.313Z,1.40
2019-03-02T14:42:43.400Z,1.13
2019-03-02T14:45:22.336Z,0.90
2019-03-02T14:48:04.744Z,1.10
2019-03-02T14:50:54.248Z,1.07
2019-03-02T14:53:45.176Z,1.13
2019-03-02T14:56:29.708Z,0.90
2019-03-02T14:59:17.366Z,1.10
2019-03-02T15:01:59.982Z,1.20
2019-03-02T15:04:45.799Z,0.90
2019-03-02T15:07:22.288Z,1.27
2019-03-02T15:10:15.892Z,1.00
2019-03-02T15:12:53.946Z,1.20
2019-03-02T15:15:39.611Z,1.27
2019-03-02T15:18:29.139Z,0.97
2019-03-02T15:21:22.524Z,1.10
2019-03-02T15:24:07.373Z,0.93
2019-03-02T15:26:51.172Z,0.90
2019-03-02T15:29:36.651Z,1.07
2019-03-02T15:32:22.177Z,1.00
2019-03-02T15:34:57.969Z,1.10
2019-03-02T15:37:41.485Z,1.10
2019-03-02T15:40:19.687Z,1.23
2019-03-02T15:43:05.023Z,1.20
2019-03-02T15:45:39.749Z,1.50
2019-03-02T15:48:28.444Z,1.17
2019-03-02T15:51:18.344Z,1.10
2019-03-02T15:53:56.573Z,1.23
2019-03-02T15:56:33.065Z,0.90
2019-03-02T15:59:35.639Z,1.30
2019-03-02T16:02:18.915Z,1.00
2019-03-02T16:05:07.857Z,1.40
2019-03-02T16:07:41.627Z,1.40
2019-03-02T16:10:20.220Z,1.30
2019-03-02T16:13:07.931Z,1.67
2019-03-02T16:15:54.864Z,1.50
2019-03-02T16:18:53.310Z,1.60
2019-03-02T16:21:48.575Z,1.57
2019-03-02T16:24:25.580Z,1.70
2019-03-02T16:27:02.575Z,1.83
2019-03-02T16:29:52.698Z,1.90
2019-03-02T16:32:41.512Z,1.73
2019-03-02T16:35:28.658Z,1.90
2019-03-02T16:38:18.338Z,2.00
2019-03-02T16:41:05.275Z,2.17
2019-03-02T16:43:42.101Z,1.93
2019-03-02T16:46:17.752Z,1.97
2019-03-02T16:48:54.755Z,2.00
2019-03-02T16:51:30.984Z,2.10
2019-03-02T16:54:20.743Z,2.07
2019-03-02T16:57:30.473Z,2.03
2019-03-02T17:00:13.175Z,2.50
2019-03-02T17:02:58.780Z,2.43
2019-03-02T17:05:41.420Z,2.07
2019-03-02T17:08:15.540Z,2.40
2019-03-02T17:10:59.673Z,1.87
2019-03-02T17:13:49.727Z,2.03
2019-03-02T17:16:37.026Z,2.00
2019-03-02T17:19:13.988Z,1.60
2019-03-02T17:21:56.558Z,1.90
2019-03-02T17:24:44.579Z,2.10
2019-03-02T17:27:37.230Z,2.00
2019-03-02T17:30:30.433Z,1.77
2019-03-02T17:33:09.084Z,2.07
2019-03-02T17:36:02.184Z,1.80
2019-03-02T17:38:51.251Z,1.97
2019-03-02T17:41:35.865Z,2.00
2019-03-02T17:44:23.472Z,1.73
2019-03-02T17:47:06.235Z,1.80
2019-03-02T17:49:40.934Z,1.50
2019-03-02T17:52:28.371Z,2.00
2019-03-02T17:55:04.082Z,1.77
2019-03-02T17:57:50.184Z,1.63
2019-03-02T18:00:41.320Z,1.77
2019-03-02T18:03:24.179Z,1.70
2019-03-02T18:06:20.485Z,1.57
2019-03-02T18:08:55.672Z,1.70
2019-03-02T18:11:41.986Z,1.67
2019-03-02T18:14:31.925Z,1.60
2019-03-02T18:17:24.544Z,1.90
2019-03-02T18:19:52.567Z,2.20
2019-03-02T18:22:20.563Z,1.70
2019-03-02T18:24:48.517Z,1.90
2019-03-02T18:27:16.507Z,1.67
2019-03-02T18:29:44.544Z,1.60
2019-03-02T18:32:12.465Z,2.00
2019-03-02T18:34:40.385Z,1.67
2019-03-02T18:37:08.323Z,1.97
2019-03-02T18:39:36.229Z,1.80
2019-03-02T18:42:04.291Z,2.00
2019-03-02T18:44:32.246Z,1.97
2019-03-02T18:47:00.135Z,2.00
2019-03-02T18:49:42.275Z,2.10
2019-03-02T18:52:20.863Z,2.40
2019-03-02T18:54:49.295Z,2.10
2019-03-02T18:57:16.408Z,1.83
2019-03-02T18:59:45.145Z,2.30
2019-03-02T19:02:14.001Z,2.60
2019-03-02T19:04:41.942Z,2.47
2019-03-02T19:07:09.994Z,2.53
2019-03-02T19:09:37.896Z,2.30
2019-03-02T19:12:06.329Z,2.50
2019-03-02T19:14:34.308Z,2.60
2019-03-02T19:17:02.335Z,3.10
2019-03-02T19:19:30.295Z,2.37
2019-03-02T19:21:58.246Z,2.40
2019-03-02T19:24:26.299Z,2.53
2019-03-02T19:26:54.279Z,2.40
2019-03-02T19:29:22.354Z,2.60
2019-03-02T19:31:50.375Z,2.20
2019-03-02T19:34:18.296Z,2.20
2019-03-02T19:36:46.271Z,2.07
2019-03-02T19:39:15.512Z,2.23
2019-03-02T19:41:43.508Z,2.50
2019-03-02T19:44:11.428Z,2.53
2019-03-02T19:46:39.365Z,2.60
2019-03-02T19:49:07.344Z,2.43
2019-03-02T19:51:35.301Z,2.20
2019-03-02T19:54:03.214Z,2.40
2019-03-02T19:56:31.212Z,2.40
2019-03-02T19:58:59.117Z,2.30
2019-03-02T20:01:27.111Z,2.10
2019-03-02T20:03:55.030Z,2.13
2019-03-02T20:06:22.968Z,2.30
2019-03-02T20:08:50.948Z,2.10
2019-03-02T20:11:18.883Z,2.00
2019-03-02T20:13:46.839Z,1.87
2019-03-02T20:16:14.821Z,2.40
2019-03-02T20:18:42.811Z,2.07
2019-03-02T20:21:10.932Z,2.07
2019-03-02T20:23:38.947Z,2.20
2019-03-02T20:26:06.949Z,1.90
2019-03-02T20:28:34.861Z,2.07
2019-03-02T20:31:02.915Z,1.80
2019-03-02T20:33:30.876Z,1.90
2019-03-02T20:35:58.829Z,2.40
2019-03-02T20:38:26.821Z,2.10
2019-03-02T20:40:54.761Z,1.80
2019-03-02T20:43:22.816Z,1.90
2019-03-02T20:45:50.749Z,1.80
2019-03-02T20:48:18.772Z,1.80
2019-03-02T20:50:46.737Z,2.10
2019-03-02T20:53:14.662Z,1.63
2019-03-02T20:55:42.576Z,2.10
2019-03-02T20:58:10.508Z,2.37
2019-03-02T21:00:38.576Z,2.13
2019-03-02T21:03:06.592Z,1.60
2019-03-02T21:05:34.716Z,1.90
2019-03-02T21:08:02.720Z,1.80
2019-03-02T21:10:30.712Z,1.77
2019-03-02T21:12:58.747Z,1.80
2019-03-02T21:15:30.128Z,1.90
2019-03-02T21:17:58.069Z,1.70
2019-03-02T21:20:26.168Z,1.80
2019-03-02T21:22:54.224Z,1.60
2019-03-02T21:25:22.135Z,1.80
2019-03-02T21:27:50.128Z,1.80
2019-03-02T21:30:18.077Z,1.53
2019-03-02T21:32:46.151Z,1.97
2019-03-02T21:35:14.158Z,1.70
2019-03-02T21:37:42.228Z,1.87
2019-03-02T21:40:13.000Z,2.13
2019-03-02T21:42:41.049Z,1.67
2019-03-02T21:45:09.921Z,1.70
2019-03-02T21:47:37.924Z,1.73
2019-03-02T21:50:06.580Z,1.50
2019-03-02T21:52:34.546Z,1.87
2019-03-02T21:55:02.575Z,1.80
2019-03-02T21:57:30.620Z,2.00
2019-03-02T21:59:58.592Z,1.60
2019-03-02T22:02:26.565Z,1.73
2019-03-02T22:04:54.594Z,1.63
2019-03-02T22:07:22.607Z,1.80
2019-03-02T22:09:50.607Z,1.63
2019-03-02T22:12:18.660Z,1.50
2019-03-02T22:14:46.591Z,1.80
2019-03-02T22:17:14.600Z,1.63
2019-03-02T22:19:42.591Z,1.80
2019-03-02T22:22:10.681Z,1.70
2019-03-02T22:24:38.750Z,2.00
2019-03-02T22:27:06.771Z,1.70
2019-03-02T22:29:34.784Z,1.63
2019-03-02T22:32:02.831Z,1.70
2019-03-02T22:34:30.835Z,1.70
2019-03-02T22:36:58.854Z,1.80
2019-03-02T22:39:26.767Z,1.40
2019-03-02T22:41:54.843Z,1.60
2019-03-02T22:44:22.861Z,1.50
2019-03-02T22:46:50.812Z,1.73
2019-03-02T22:49:18.753Z,1.53
2019-03-02T22:51:46.743Z,1.70
2019-03-02T22:54:14.783Z,1.67
2019-03-02T22:56:42.705Z,1.70
2019-03-02T22:59:09.782Z,1.50
2019-03-02T23:01:54.273Z,1.60
2019-03-02T23:04:22.220Z,1.50
2019-03-02T23:06:50.366Z,1.70
2019-03-02T23:09:18.397Z,1.73
2019-03-02T23:11:46.434Z,1.53
2019-03-02T23:14:14.452Z,1.77
2019-03-02T23:16:42.452Z,1.50
2019-03-02T23:19:10.414Z,1.70
2019-03-02T23:21:38.445Z,1.90
2019-03-02T23:24:06.424Z,1.50
2019-03-02T23:26:34.352Z,1.60
2019-03-02T23:29:02.276Z,1.40
2019-03-02T23:31:30.299Z,1.63
2019-03-02T23:33:58.259Z,1.83
2019-03-02T23:36:26.292Z,1.60
2019-03-02T23:38:54.276Z,1.53
2019-03-02T23:41:22.289Z,1.57
2019-03-02T23:43:50.215Z,1.50
2019-03-02T23:46:18.206Z,1.57
2019-03-02T23:48:46.164Z,1.67
2019-03-02T23:51:14.173Z,1.77
2019-03-02T23:53:42.113Z,1.80
2019-03-02T23:56:10.106Z,1.53
2019-03-02T23:58:38.112Z,1.87
